This is the latest recevied weather packets stored in our database for station/object IU1CYJ. If no packets are shown the sender has not sent any weather packets the latest 10 day(s).
| Time | Temp. | Humidity | Pressure | Rain* | Wind** | Luminosity | Snow |
|---|---|---|---|---|---|---|---|
| 1777893362 | 17.22° C | 61% | 1018.6 hPa | 0 mm | - | - | - |
| 1777888859 | 16.67° C | 64% | 1018.8 hPa | 0 mm | - | - | - |
| 1777886155 | 16.11° C | 65% | 1018.7 hPa | 0 mm | - | - | - |
| 1777876276 | 13.89° C | 71% | 1017.7 hPa | 0 mm | - | - | - |
| 1777875355 | 13.89° C | 69% | 1017.7 hPa | 0 mm | - | - | - |
| 1777872684 | 13.33° C | 70% | 1017.4 hPa | 0 mm | - | - | - |
| 1777870864 | 13.33° C | 71% | 1017.1 hPa | 0 mm | - | - | - |
| 1777869055 | 13.89° C | 75% | 1016.8 hPa | 0 mm | - | - | - |
| 1777860054 | 14.44° C | 73% | 1016.8 hPa | 0 mm | - | - | - |
| 1777852898 | 15.56° C | 69% | 1017.5 hPa | 0 mm | - | - | - |
| 1777846560 | 16.11° C | 63% | 1017.8 hPa | 0 mm | - | - | - |
| 1777844757 | 16.67° C | 60% | 1017.7 hPa | 0 mm | - | - | - |
| 1777842054 | 16.67° C | 60% | 1017.5 hPa | 0 mm | - | - | - |
| 1777840268 | 17.22° C | 55% | 1017.4 hPa | 0 mm | - | - | - |
| 1777834855 | 18.89° C | 54% | 1017 hPa | 0 mm | - | - | - |
| 1777833954 | 18.89° C | 53% | 1016.8 hPa | 0 mm | - | - | - |
| 1777828553 | 20.56° C | 47% | 1016.8 hPa | 0 mm | - | - | - |
| 1777826755 | 21.11° C | 45% | 1016.7 hPa | 0 mm | - | - | - |
| 1777824956 | 21.67° C | 46% | 1016.7 hPa | 0 mm | - | - | - |
| 1777817755 | 21.67° C | 48% | 1017.5 hPa | 0 mm | - | - | - |
| 1777816859 | 21.67° C | 47% | 1017.7 hPa | 0 mm | - | - | - |
| 1777815955 | 21.67° C | 47% | 1017.9 hPa | 0 mm | - | - | - |
| 1777812360 | 21.11° C | 50% | 1018.7 hPa | 0 mm | - | - | - |
| 1777808761 | 21.11° C | 48% | 1018.9 hPa | 0 mm | - | - | - |
| 1777806058 | 21.11° C | 52% | 1019.1 hPa | 0 mm | - | - | - |
* Rain latest hour (hover to see other rain measurements)
** Current wind speed in m/s (hover to see current wind gust speed)